sensor_id;sensor_type;location;lat;lon;timestamp;P1;durP1;ratioP1;P2;durP2;ratioP2
55417;SDS011;41287;47.554;7.844;2022-11-30T00:01:24;16.95;;;11.18;;
55417;SDS011;41287;47.554;7.844;2022-11-30T00:03:53;17.90;;;12.18;;
55417;SDS011;41287;47.554;7.844;2022-11-30T00:06:19;17.85;;;11.38;;
55417;SDS011;41287;47.554;7.844;2022-11-30T00:08:47;18.52;;;11.32;;
55417;SDS011;41287;47.554;7.844;2022-11-30T00:11:14;16.35;;;11.10;;
55417;SDS011;41287;47.554;7.844;2022-11-30T00:13:45;16.65;;;11.35;;
55417;SDS011;41287;47.554;7.844;2022-11-30T00:16:10;16.30;;;10.70;;
55417;SDS011;41287;47.554;7.844;2022-11-30T00:18:36;18.50;;;11.80;;
55417;SDS011;41287;47.554;7.844;2022-11-30T00:21:03;18.63;;;11.68;;
55417;SDS011;41287;47.554;7.844;2022-11-30T00:23:33;19.75;;;12.07;;
55417;SDS011;41287;47.554;7.844;2022-11-30T00:26:03;18.40;;;11.45;;
55417;SDS011;41287;47.554;7.844;2022-11-30T00:28:31;17.48;;;11.10;;
55417;SDS011;41287;47.554;7.844;2022-11-30T00:30:58;17.90;;;11.52;;
55417;SDS011;41287;47.554;7.844;2022-11-30T00:33:26;18.48;;;11.10;;
55417;SDS011;41287;47.554;7.844;2022-11-30T00:35:56;16.85;;;10.32;;
55417;SDS011;41287;47.554;7.844;2022-11-30T00:38:25;17.13;;;11.13;;
55417;SDS011;41287;47.554;7.844;2022-11-30T00:40:51;16.85;;;10.77;;
55417;SDS011;41287;47.554;7.844;2022-11-30T00:43:16;18.30;;;11.32;;
55417;SDS011;41287;47.554;7.844;2022-11-30T00:45:42;16.85;;;10.20;;
55417;SDS011;41287;47.554;7.844;2022-11-30T00:48:07;17.15;;;10.77;;
55417;SDS011;41287;47.554;7.844;2022-11-30T00:50:33;18.15;;;11.90;;
55417;SDS011;41287;47.554;7.844;2022-11-30T00:52:58;16.70;;;9.93;;
55417;SDS011;41287;47.554;7.844;2022-11-30T00:55:24;17.30;;;10.68;;
55417;SDS011;41287;47.554;7.844;2022-11-30T00:57:49;18.30;;;11.13;;
55417;SDS011;41287;47.554;7.844;2022-11-30T01:00:15;17.42;;;10.90;;
55417;SDS011;41287;47.554;7.844;2022-11-30T01:02:41;18.67;;;12.07;;
55417;SDS011;41287;47.554;7.844;2022-11-30T01:05:09;15.63;;;9.95;;
55417;SDS011;41287;47.554;7.844;2022-11-30T01:07:34;18.13;;;11.07;;
55417;SDS011;41287;47.554;7.844;2022-11-30T01:10:00;16.50;;;11.10;;
55417;SDS011;41287;47.554;7.844;2022-11-30T01:12:25;16.67;;;11.40;;
55417;SDS011;41287;47.554;7.844;2022-11-30T01:14:51;14.85;;;9.45;;
55417;SDS011;41287;47.554;7.844;2022-11-30T01:17:16;15.98;;;10.15;;
55417;SDS011;41287;47.554;7.844;2022-11-30T01:19:41;16.73;;;10.93;;
55417;SDS011;41287;47.554;7.844;2022-11-30T01:22:07;17.10;;;10.18;;
55417;SDS011;41287;47.554;7.844;2022-11-30T01:24:32;16.48;;;10.27;;
55417;SDS011;41287;47.554;7.844;2022-11-30T01:26:57;16.67;;;10.18;;
55417;SDS011;41287;47.554;7.844;2022-11-30T01:29:23;16.05;;;10.25;;
55417;SDS011;41287;47.554;7.844;2022-11-30T01:31:48;15.48;;;9.85;;
55417;SDS011;41287;47.554;7.844;2022-11-30T01:34:13;17.67;;;10.48;;
55417;SDS011;41287;47.554;7.844;2022-11-30T01:36:39;14.70;;;10.13;;
55417;SDS011;41287;47.554;7.844;2022-11-30T01:39:06;16.42;;;9.75;;
55417;SDS011;41287;47.554;7.844;2022-11-30T01:41:33;15.38;;;10.02;;
55417;SDS011;41287;47.554;7.844;2022-11-30T01:46:43;16.57;;;9.80;;
55417;SDS011;41287;47.554;7.844;2022-11-30T01:49:15;17.55;;;10.02;;
55417;SDS011;41287;47.554;7.844;2022-11-30T01:56:52;17.77;;;11.05;;
55417;SDS011;41287;47.554;7.844;2022-11-30T01:59:21;14.80;;;9.57;;
55417;SDS011;41287;47.554;7.844;2022-11-30T02:01:47;15.43;;;9.63;;
55417;SDS011;41287;47.554;7.844;2022-11-30T02:04:27;16.75;;;10.02;;
55417;SDS011;41287;47.554;7.844;2022-11-30T02:06:55;16.27;;;10.70;;
55417;SDS011;41287;47.554;7.844;2022-11-30T02:09:21;14.38;;;9.32;;
55417;SDS011;41287;47.554;7.844;2022-11-30T02:11:50;14.05;;;8.75;;
55417;SDS011;41287;47.554;7.844;2022-11-30T02:19:41;15.32;;;9.90;;
55417;SDS011;41287;47.554;7.844;2022-11-30T02:25:24;15.75;;;9.38;;
55417;SDS011;41287;47.554;7.844;2022-11-30T02:30:30;14.95;;;9.00;;
55417;SDS011;41287;47.554;7.844;2022-11-30T02:33:02;14.65;;;8.80;;
55417;SDS011;41287;47.554;7.844;2022-11-30T02:35:34;13.73;;;8.77;;
55417;SDS011;41287;47.554;7.844;2022-11-30T02:38:02;14.25;;;9.13;;
55417;SDS011;41287;47.554;7.844;2022-11-30T02:40:28;15.00;;;9.45;;
55417;SDS011;41287;47.554;7.844;2022-11-30T02:42:57;15.25;;;9.32;;
55417;SDS011;41287;47.554;7.844;2022-11-30T02:45:30;14.20;;;8.88;;
55417;SDS011;41287;47.554;7.844;2022-11-30T02:48:08;15.80;;;8.82;;
55417;SDS011;41287;47.554;7.844;2022-11-30T02:50:37;15.30;;;9.33;;
55417;SDS011;41287;47.554;7.844;2022-11-30T02:53:05;13.60;;;8.43;;
55417;SDS011;41287;47.554;7.844;2022-11-30T02:55:33;15.35;;;9.25;;
55417;SDS011;41287;47.554;7.844;2022-11-30T02:57:58;14.35;;;9.00;;
55417;SDS011;41287;47.554;7.844;2022-11-30T03:00:23;14.73;;;8.95;;
55417;SDS011;41287;47.554;7.844;2022-11-30T03:02:53;13.07;;;8.50;;
55417;SDS011;41287;47.554;7.844;2022-11-30T03:05:19;13.82;;;8.90;;
55417;SDS011;41287;47.554;7.844;2022-11-30T03:07:44;13.98;;;7.95;;
55417;SDS011;41287;47.554;7.844;2022-11-30T03:10:09;15.43;;;9.00;;
55417;SDS011;41287;47.554;7.844;2022-11-30T03:12:35;13.45;;;8.32;;
55417;SDS011;41287;47.554;7.844;2022-11-30T03:15:00;12.38;;;7.97;;
55417;SDS011;41287;47.554;7.844;2022-11-30T03:17:26;13.38;;;8.50;;
55417;SDS011;41287;47.554;7.844;2022-11-30T03:19:51;14.32;;;8.57;;
55417;SDS011;41287;47.554;7.844;2022-11-30T03:22:16;15.80;;;9.27;;
55417;SDS011;41287;47.554;7.844;2022-11-30T03:24:42;14.68;;;9.05;;
55417;SDS011;41287;47.554;7.844;2022-11-30T03:27:11;12.43;;;7.80;;
55417;SDS011;41287;47.554;7.844;2022-11-30T03:29:37;11.77;;;8.00;;
55417;SDS011;41287;47.554;7.844;2022-11-30T03:32:03;14.38;;;8.73;;
55417;SDS011;41287;47.554;7.844;2022-11-30T03:34:29;15.25;;;9.13;;
55417;SDS011;41287;47.554;7.844;2022-11-30T03:36:54;13.52;;;8.50;;
55417;SDS011;41287;47.554;7.844;2022-11-30T03:39:20;12.98;;;8.15;;
55417;SDS011;41287;47.554;7.844;2022-11-30T03:41:45;13.25;;;8.15;;
55417;SDS011;41287;47.554;7.844;2022-11-30T03:44:11;12.68;;;7.88;;
55417;SDS011;41287;47.554;7.844;2022-11-30T03:46:36;13.80;;;8.45;;
55417;SDS011;41287;47.554;7.844;2022-11-30T03:49:01;12.82;;;7.78;;
55417;SDS011;41287;47.554;7.844;2022-11-30T03:51:27;12.68;;;8.07;;
55417;SDS011;41287;47.554;7.844;2022-11-30T03:53:52;14.27;;;8.05;;
55417;SDS011;41287;47.554;7.844;2022-11-30T03:56:17;14.82;;;8.27;;
55417;SDS011;41287;47.554;7.844;2022-11-30T03:58:43;12.18;;;7.43;;
55417;SDS011;41287;47.554;7.844;2022-11-30T04:01:12;12.73;;;7.90;;
55417;SDS011;41287;47.554;7.844;2022-11-30T04:03:39;13.15;;;8.48;;
55417;SDS011;41287;47.554;7.844;2022-11-30T04:06:06;11.98;;;7.55;;
55417;SDS011;41287;47.554;7.844;2022-11-30T04:08:32;12.50;;;7.43;;
55417;SDS011;41287;47.554;7.844;2022-11-30T04:10:59;13.35;;;8.05;;
55417;SDS011;41287;47.554;7.844;2022-11-30T04:13:26;13.30;;;8.02;;
55417;SDS011;41287;47.554;7.844;2022-11-30T04:15:52;14.55;;;8.02;;
55417;SDS011;41287;47.554;7.844;2022-11-30T04:18:19;10.48;;;7.20;;
55417;SDS011;41287;47.554;7.844;2022-11-30T04:20:46;10.98;;;7.45;;
55417;SDS011;41287;47.554;7.844;2022-11-30T04:23:16;12.27;;;7.57;;
55417;SDS011;41287;47.554;7.844;2022-11-30T04:25:42;13.73;;;8.32;;
55417;SDS011;41287;47.554;7.844;2022-11-30T04:28:08;11.20;;;7.40;;
55417;SDS011;41287;47.554;7.844;2022-11-30T04:30:34;11.32;;;7.10;;
55417;SDS011;41287;47.554;7.844;2022-11-30T04:33:00;11.15;;;6.80;;
55417;SDS011;41287;47.554;7.844;2022-11-30T04:35:29;11.68;;;7.28;;
55417;SDS011;41287;47.554;7.844;2022-11-30T04:37:54;10.98;;;7.05;;
55417;SDS011;41287;47.554;7.844;2022-11-30T04:40:19;12.98;;;7.07;;
55417;SDS011;41287;47.554;7.844;2022-11-30T04:42:47;11.40;;;7.32;;
55417;SDS011;41287;47.554;7.844;2022-11-30T04:45:12;14.45;;;8.20;;
55417;SDS011;41287;47.554;7.844;2022-11-30T04:47:37;23.95;;;7.47;;
55417;SDS011;41287;47.554;7.844;2022-11-30T04:50:03;18.00;;;7.93;;
55417;SDS011;41287;47.554;7.844;2022-11-30T04:52:29;12.82;;;6.68;;
55417;SDS011;41287;47.554;7.844;2022-11-30T04:54:55;10.15;;;6.43;;
55417;SDS011;41287;47.554;7.844;2022-11-30T04:57:21;9.20;;;5.90;;
55417;SDS011;41287;47.554;7.844;2022-11-30T04:59:46;10.63;;;6.18;;
55417;SDS011;41287;47.554;7.844;2022-11-30T05:02:12;9.68;;;6.28;;
55417;SDS011;41287;47.554;7.844;2022-11-30T05:04:37;10.13;;;6.07;;
55417;SDS011;41287;47.554;7.844;2022-11-30T05:07:07;9.32;;;5.80;;
55417;SDS011;41287;47.554;7.844;2022-11-30T05:09:33;7.72;;;5.38;;
55417;SDS011;41287;47.554;7.844;2022-11-30T05:11:58;7.75;;;5.63;;
55417;SDS011;41287;47.554;7.844;2022-11-30T05:14:24;10.23;;;6.20;;
55417;SDS011;41287;47.554;7.844;2022-11-30T05:16:49;8.80;;;5.68;;
55417;SDS011;41287;47.554;7.844;2022-11-30T05:19:14;8.60;;;5.43;;
55417;SDS011;41287;47.554;7.844;2022-11-30T05:21:40;9.68;;;6.07;;
55417;SDS011;41287;47.554;7.844;2022-11-30T05:24:08;10.20;;;5.38;;
55417;SDS011;41287;47.554;7.844;2022-11-30T05:26:34;9.30;;;6.30;;
55417;SDS011;41287;47.554;7.844;2022-11-30T05:29:00;11.65;;;6.25;;
55417;SDS011;41287;47.554;7.844;2022-11-30T05:31:26;9.98;;;6.05;;
55417;SDS011;41287;47.554;7.844;2022-11-30T05:33:52;9.38;;;5.63;;
55417;SDS011;41287;47.554;7.844;2022-11-30T05:36:18;10.15;;;5.72;;
55417;SDS011;41287;47.554;7.844;2022-11-30T05:38:44;11.07;;;6.30;;
55417;SDS011;41287;47.554;7.844;2022-11-30T05:41:09;10.13;;;5.95;;
55417;SDS011;41287;47.554;7.844;2022-11-30T05:43:35;10.90;;;6.22;;
55417;SDS011;41287;47.554;7.844;2022-11-30T05:46:01;9.48;;;5.70;;
55417;SDS011;41287;47.554;7.844;2022-11-30T05:48:27;10.00;;;6.00;;
55417;SDS011;41287;47.554;7.844;2022-11-30T05:50:53;10.27;;;6.47;;
55417;SDS011;41287;47.554;7.844;2022-11-30T05:53:19;11.02;;;5.80;;
55417;SDS011;41287;47.554;7.844;2022-11-30T05:55:45;10.20;;;6.35;;
55417;SDS011;41287;47.554;7.844;2022-11-30T05:58:10;10.63;;;6.65;;
55417;SDS011;41287;47.554;7.844;2022-11-30T06:00:35;11.07;;;6.55;;
55417;SDS011;41287;47.554;7.844;2022-11-30T06:03:01;10.15;;;6.13;;
55417;SDS011;41287;47.554;7.844;2022-11-30T06:05:26;10.55;;;6.18;;
55417;SDS011;41287;47.554;7.844;2022-11-30T06:07:52;11.40;;;6.55;;
55417;SDS011;41287;47.554;7.844;2022-11-30T06:10:22;10.35;;;6.13;;
55417;SDS011;41287;47.554;7.844;2022-11-30T06:12:49;10.13;;;5.55;;
55417;SDS011;41287;47.554;7.844;2022-11-30T06:15:17;9.63;;;5.65;;
55417;SDS011;41287;47.554;7.844;2022-11-30T06:17:42;10.43;;;6.25;;
55417;SDS011;41287;47.554;7.844;2022-11-30T06:20:07;10.32;;;5.60;;
55417;SDS011;41287;47.554;7.844;2022-11-30T06:22:33;11.30;;;6.30;;
55417;SDS011;41287;47.554;7.844;2022-11-30T06:24:58;10.43;;;5.78;;
55417;SDS011;41287;47.554;7.844;2022-11-30T06:27:24;11.43;;;5.10;;
55417;SDS011;41287;47.554;7.844;2022-11-30T06:29:49;7.90;;;4.90;;
55417;SDS011;41287;47.554;7.844;2022-11-30T06:32:14;8.93;;;5.50;;
55417;SDS011;41287;47.554;7.844;2022-11-30T06:34:40;10.90;;;6.00;;
55417;SDS011;41287;47.554;7.844;2022-11-30T06:37:05;9.38;;;5.45;;
55417;SDS011;41287;47.554;7.844;2022-11-30T06:39:31;12.48;;;6.20;;
55417;SDS011;41287;47.554;7.844;2022-11-30T06:41:56;8.80;;;5.72;;
55417;SDS011;41287;47.554;7.844;2022-11-30T06:44:21;10.80;;;5.95;;
55417;SDS011;41287;47.554;7.844;2022-11-30T06:46:47;9.98;;;5.82;;
55417;SDS011;41287;47.554;7.844;2022-11-30T06:49:12;8.50;;;5.68;;
55417;SDS011;41287;47.554;7.844;2022-11-30T06:51:37;11.50;;;6.85;;
55417;SDS011;41287;47.554;7.844;2022-11-30T06:54:04;11.93;;;5.88;;
55417;SDS011;41287;47.554;7.844;2022-11-30T06:56:31;13.38;;;5.43;;
55417;SDS011;41287;47.554;7.844;2022-11-30T06:58:56;9.43;;;5.88;;
55417;SDS011;41287;47.554;7.844;2022-11-30T07:01:22;9.75;;;5.13;;
55417;SDS011;41287;47.554;7.844;2022-11-30T07:03:47;9.73;;;5.75;;
55417;SDS011;41287;47.554;7.844;2022-11-30T07:06:13;8.48;;;4.80;;
55417;SDS011;41287;47.554;7.844;2022-11-30T07:08:40;9.60;;;5.45;;
55417;SDS011;41287;47.554;7.844;2022-11-30T07:11:06;10.70;;;6.05;;
55417;SDS011;41287;47.554;7.844;2022-11-30T07:13:33;9.30;;;5.25;;
55417;SDS011;41287;47.554;7.844;2022-11-30T07:16:01;10.43;;;5.75;;
55417;SDS011;41287;47.554;7.844;2022-11-30T07:18:28;8.80;;;5.20;;
55417;SDS011;41287;47.554;7.844;2022-11-30T07:20:57;9.00;;;5.30;;
55417;SDS011;41287;47.554;7.844;2022-11-30T07:23:23;8.68;;;5.00;;
55417;SDS011;41287;47.554;7.844;2022-11-30T07:26:11;8.57;;;5.38;;
55417;SDS011;41287;47.554;7.844;2022-11-30T07:28:41;8.15;;;5.18;;
55417;SDS011;41287;47.554;7.844;2022-11-30T07:33:53;9.02;;;5.13;;
55417;SDS011;41287;47.554;7.844;2022-11-30T07:36:20;9.52;;;5.85;;
55417;SDS011;41287;47.554;7.844;2022-11-30T07:38:47;7.95;;;4.90;;
55417;SDS011;41287;47.554;7.844;2022-11-30T07:41:12;10.15;;;5.35;;
55417;SDS011;41287;47.554;7.844;2022-11-30T07:43:38;10.60;;;5.47;;
55417;SDS011;41287;47.554;7.844;2022-11-30T07:46:08;9.20;;;5.55;;
55417;SDS011;41287;47.554;7.844;2022-11-30T07:48:36;10.30;;;5.40;;
55417;SDS011;41287;47.554;7.844;2022-11-30T07:51:02;8.63;;;5.55;;
55417;SDS011;41287;47.554;7.844;2022-11-30T07:53:29;10.93;;;5.07;;
55417;SDS011;41287;47.554;7.844;2022-11-30T07:56:00;9.27;;;4.80;;
55417;SDS011;41287;47.554;7.844;2022-11-30T07:58:27;9.82;;;5.03;;
55417;SDS011;41287;47.554;7.844;2022-11-30T08:00:52;7.93;;;5.28;;
55417;SDS011;41287;47.554;7.844;2022-11-30T08:03:21;9.35;;;5.18;;
55417;SDS011;41287;47.554;7.844;2022-11-30T08:05:46;9.55;;;5.03;;
55417;SDS011;41287;47.554;7.844;2022-11-30T08:08:12;8.55;;;4.57;;
55417;SDS011;41287;47.554;7.844;2022-11-30T08:10:37;10.18;;;5.68;;
55417;SDS011;41287;47.554;7.844;2022-11-30T08:13:02;10.45;;;5.32;;
55417;SDS011;41287;47.554;7.844;2022-11-30T08:15:27;10.10;;;5.43;;
55417;SDS011;41287;47.554;7.844;2022-11-30T08:17:58;9.07;;;5.40;;
55417;SDS011;41287;47.554;7.844;2022-11-30T08:20:24;8.73;;;5.22;;
55417;SDS011;41287;47.554;7.844;2022-11-30T08:22:49;10.73;;;5.47;;
55417;SDS011;41287;47.554;7.844;2022-11-30T08:25:16;7.13;;;4.88;;
55417;SDS011;41287;47.554;7.844;2022-11-30T08:27:41;9.85;;;5.68;;
55417;SDS011;41287;47.554;7.844;2022-11-30T08:30:07;9.55;;;5.47;;
55417;SDS011;41287;47.554;7.844;2022-11-30T08:32:32;9.95;;;4.75;;
55417;SDS011;41287;47.554;7.844;2022-11-30T08:34:58;10.93;;;5.90;;
55417;SDS011;41287;47.554;7.844;2022-11-30T08:37:23;9.20;;;5.25;;
55417;SDS011;41287;47.554;7.844;2022-11-30T08:39:49;9.43;;;4.95;;
55417;SDS011;41287;47.554;7.844;2022-11-30T08:42:14;7.72;;;4.82;;
55417;SDS011;41287;47.554;7.844;2022-11-30T08:44:39;9.38;;;5.60;;
55417;SDS011;41287;47.554;7.844;2022-11-30T08:47:05;8.55;;;4.63;;
55417;SDS011;41287;47.554;7.844;2022-11-30T08:49:31;8.95;;;5.00;;
55417;SDS011;41287;47.554;7.844;2022-11-30T08:51:56;10.88;;;5.13;;
55417;SDS011;41287;47.554;7.844;2022-11-30T08:54:21;7.57;;;4.93;;
55417;SDS011;41287;47.554;7.844;2022-11-30T08:56:47;9.35;;;4.68;;
55417;SDS011;41287;47.554;7.844;2022-11-30T08:59:12;10.73;;;5.47;;
55417;SDS011;41287;47.554;7.844;2022-11-30T09:01:37;9.23;;;5.20;;
55417;SDS011;41287;47.554;7.844;2022-11-30T09:04:03;10.65;;;5.32;;
55417;SDS011;41287;47.554;7.844;2022-11-30T09:06:29;8.15;;;5.00;;
55417;SDS011;41287;47.554;7.844;2022-11-30T09:08:55;9.38;;;5.30;;
55417;SDS011;41287;47.554;7.844;2022-11-30T09:11:22;10.25;;;5.30;;
55417;SDS011;41287;47.554;7.844;2022-11-30T09:13:51;10.15;;;5.30;;
55417;SDS011;41287;47.554;7.844;2022-11-30T09:16:18;11.15;;;5.43;;
55417;SDS011;41287;47.554;7.844;2022-11-30T09:18:45;9.43;;;4.93;;
55417;SDS011;41287;47.554;7.844;2022-11-30T09:21:14;8.50;;;4.75;;
55417;SDS011;41287;47.554;7.844;2022-11-30T09:23:42;8.95;;;4.70;;
55417;SDS011;41287;47.554;7.844;2022-11-30T09:26:08;7.50;;;4.75;;
55417;SDS011;41287;47.554;7.844;2022-11-30T09:28:36;8.93;;;5.18;;
55417;SDS011;41287;47.554;7.844;2022-11-30T09:31:03;9.00;;;4.53;;
55417;SDS011;41287;47.554;7.844;2022-11-30T09:33:31;10.57;;;5.70;;
55417;SDS011;41287;47.554;7.844;2022-11-30T09:35:58;11.00;;;5.32;;
55417;SDS011;41287;47.554;7.844;2022-11-30T09:38:27;9.82;;;5.32;;
55417;SDS011;41287;47.554;7.844;2022-11-30T09:40:54;10.48;;;5.30;;
55417;SDS011;41287;47.554;7.844;2022-11-30T09:43:33;8.68;;;4.80;;
55417;SDS011;41287;47.554;7.844;2022-11-30T09:46:15;8.07;;;5.18;;
55417;SDS011;41287;47.554;7.844;2022-11-30T09:54:30;7.75;;;4.90;;
55417;SDS011;41287;47.554;7.844;2022-11-30T09:57:11;7.78;;;4.97;;
55417;SDS011;41287;47.554;7.844;2022-11-30T09:59:45;7.70;;;4.43;;
55417;SDS011;41287;47.554;7.844;2022-11-30T10:02:16;8.07;;;4.63;;
55417;SDS011;41287;47.554;7.844;2022-11-30T10:04:42;9.15;;;4.60;;
55417;SDS011;41287;47.554;7.844;2022-11-30T10:09:58;8.73;;;5.03;;
55417;SDS011;41287;47.554;7.844;2022-11-30T10:18:15;10.10;;;5.05;;
55417;SDS011;41287;47.554;7.844;2022-11-30T10:20:50;10.38;;;4.68;;
55417;SDS011;41287;47.554;7.844;2022-11-30T10:23:33;11.02;;;5.70;;
55417;SDS011;41287;47.554;7.844;2022-11-30T10:26:29;9.50;;;4.75;;
55417;SDS011;41287;47.554;7.844;2022-11-30T10:29:04;8.70;;;4.80;;
55417;SDS011;41287;47.554;7.844;2022-11-30T10:31:38;13.10;;;5.47;;
55417;SDS011;41287;47.554;7.844;2022-11-30T10:34:20;9.45;;;4.70;;
55417;SDS011;41287;47.554;7.844;2022-11-30T10:36:50;9.57;;;5.30;;
55417;SDS011;41287;47.554;7.844;2022-11-30T10:39:25;9.45;;;4.95;;
55417;SDS011;41287;47.554;7.844;2022-11-30T10:41:55;10.77;;;5.13;;
55417;SDS011;41287;47.554;7.844;2022-11-30T10:44:33;9.18;;;5.10;;
55417;SDS011;41287;47.554;7.844;2022-11-30T10:49:34;9.57;;;5.60;;
55417;SDS011;41287;47.554;7.844;2022-11-30T10:52:04;9.23;;;4.82;;
55417;SDS011;41287;47.554;7.844;2022-11-30T10:54:32;8.93;;;4.88;;
55417;SDS011;41287;47.554;7.844;2022-11-30T10:56:59;9.95;;;4.88;;
55417;SDS011;41287;47.554;7.844;2022-11-30T11:07:51;8.70;;;4.55;;
55417;SDS011;41287;47.554;7.844;2022-11-30T11:10:28;9.70;;;5.13;;
55417;SDS011;41287;47.554;7.844;2022-11-30T11:12:57;12.60;;;5.57;;
55417;SDS011;41287;47.554;7.844;2022-11-30T11:15:32;9.82;;;5.03;;
55417;SDS011;41287;47.554;7.844;2022-11-30T11:20:45;8.55;;;4.63;;
55417;SDS011;41287;47.554;7.844;2022-11-30T11:23:29;10.00;;;4.85;;
55417;SDS011;41287;47.554;7.844;2022-11-30T11:25:58;10.52;;;5.30;;
55417;SDS011;41287;47.554;7.844;2022-11-30T11:28:24;10.93;;;5.60;;
55417;SDS011;41287;47.554;7.844;2022-11-30T11:30:53;13.90;;;5.38;;
55417;SDS011;41287;47.554;7.844;2022-11-30T11:36:11;10.23;;;5.15;;
55417;SDS011;41287;47.554;7.844;2022-11-30T11:38:45;11.10;;;5.35;;
55417;SDS011;41287;47.554;7.844;2022-11-30T11:41:33;8.85;;;4.72;;
55417;SDS011;41287;47.554;7.844;2022-11-30T11:44:16;11.23;;;5.13;;
55417;SDS011;41287;47.554;7.844;2022-11-30T11:47:00;8.63;;;5.20;;
55417;SDS011;41287;47.554;7.844;2022-11-30T11:49:35;8.15;;;4.90;;
55417;SDS011;41287;47.554;7.844;2022-11-30T11:57:08;10.15;;;5.38;;
55417;SDS011;41287;47.554;7.844;2022-11-30T11:59:48;10.20;;;5.32;;
55417;SDS011;41287;47.554;7.844;2022-11-30T12:08:21;11.25;;;5.47;;
55417;SDS011;41287;47.554;7.844;2022-11-30T12:11:13;11.93;;;5.82;;
55417;SDS011;41287;47.554;7.844;2022-11-30T12:13:43;9.60;;;4.68;;
55417;SDS011;41287;47.554;7.844;2022-11-30T12:21:56;10.07;;;4.68;;
55417;SDS011;41287;47.554;7.844;2022-11-30T12:36:39;9.20;;;4.90;;
55417;SDS011;41287;47.554;7.844;2022-11-30T12:42:14;8.48;;;4.55;;
55417;SDS011;41287;47.554;7.844;2022-11-30T12:50:35;9.05;;;4.47;;
55417;SDS011;41287;47.554;7.844;2022-11-30T12:56:10;8.70;;;4.43;;
55417;SDS011;41287;47.554;7.844;2022-11-30T13:06:38;10.13;;;5.10;;
55417;SDS011;41287;47.554;7.844;2022-11-30T13:09:20;13.00;;;5.22;;
55417;SDS011;41287;47.554;7.844;2022-11-30T13:12:09;10.02;;;4.80;;
55417;SDS011;41287;47.554;7.844;2022-11-30T13:14:37;9.90;;;4.82;;
55417;SDS011;41287;47.554;7.844;2022-11-30T13:17:05;10.43;;;5.40;;
55417;SDS011;41287;47.554;7.844;2022-11-30T13:19:57;11.00;;;5.20;;
55417;SDS011;41287;47.554;7.844;2022-11-30T13:25:14;10.63;;;4.93;;
55417;SDS011;41287;47.554;7.844;2022-11-30T13:36:02;9.77;;;5.45;;
55417;SDS011;41287;47.554;7.844;2022-11-30T13:38:29;10.55;;;5.05;;
55417;SDS011;41287;47.554;7.844;2022-11-30T13:43:30;11.65;;;5.38;;
55417;SDS011;41287;47.554;7.844;2022-11-30T13:46:33;10.35;;;4.45;;
55417;SDS011;41287;47.554;7.844;2022-11-30T13:49:09;9.93;;;5.07;;
55417;SDS011;41287;47.554;7.844;2022-11-30T13:51:44;8.35;;;4.90;;
55417;SDS011;41287;47.554;7.844;2022-11-30T13:57:00;9.13;;;4.63;;
55417;SDS011;41287;47.554;7.844;2022-11-30T14:01:51;10.20;;;5.18;;
55417;SDS011;41287;47.554;7.844;2022-11-30T14:04:42;8.07;;;4.28;;
55417;SDS011;41287;47.554;7.844;2022-11-30T14:09:59;9.38;;;4.55;;
55417;SDS011;41287;47.554;7.844;2022-11-30T14:15:01;9.05;;;4.80;;
55417;SDS011;41287;47.554;7.844;2022-11-30T14:17:47;8.50;;;4.20;;
55417;SDS011;41287;47.554;7.844;2022-11-30T14:20:14;8.52;;;4.15;;
55417;SDS011;41287;47.554;7.844;2022-11-30T14:22:43;9.20;;;4.65;;
55417;SDS011;41287;47.554;7.844;2022-11-30T14:25:15;8.50;;;4.30;;
55417;SDS011;41287;47.554;7.844;2022-11-30T14:27:44;7.82;;;4.30;;
55417;SDS011;41287;47.554;7.844;2022-11-30T14:30:16;8.30;;;4.28;;
55417;SDS011;41287;47.554;7.844;2022-11-30T14:32:48;8.20;;;4.22;;
55417;SDS011;41287;47.554;7.844;2022-11-30T14:35:19;10.35;;;4.22;;
55417;SDS011;41287;47.554;7.844;2022-11-30T14:37:51;9.65;;;4.10;;
55417;SDS011;41287;47.554;7.844;2022-11-30T14:40:20;9.02;;;3.70;;
55417;SDS011;41287;47.554;7.844;2022-11-30T14:42:52;7.00;;;3.92;;
55417;SDS011;41287;47.554;7.844;2022-11-30T14:45:23;9.90;;;4.25;;
55417;SDS011;41287;47.554;7.844;2022-11-30T14:48:33;7.18;;;3.60;;
55417;SDS011;41287;47.554;7.844;2022-11-30T14:50:42;8.95;;;4.40;;
55417;SDS011;41287;47.554;7.844;2022-11-30T14:56:30;8.70;;;4.32;;
55417;SDS011;41287;47.554;7.844;2022-11-30T15:01:42;7.93;;;3.97;;
55417;SDS011;41287;47.554;7.844;2022-11-30T15:04:09;7.68;;;4.15;;
55417;SDS011;41287;47.554;7.844;2022-11-30T15:06:38;9.65;;;4.47;;
55417;SDS011;41287;47.554;7.844;2022-11-30T15:09:04;10.30;;;4.28;;
55417;SDS011;41287;47.554;7.844;2022-11-30T15:11:40;8.52;;;3.88;;
55417;SDS011;41287;47.554;7.844;2022-11-30T15:14:09;10.43;;;4.78;;
55417;SDS011;41287;47.554;7.844;2022-11-30T15:16:35;8.45;;;3.92;;
55417;SDS011;41287;47.554;7.844;2022-11-30T15:19:15;8.85;;;4.53;;
55417;SDS011;41287;47.554;7.844;2022-11-30T15:21:45;9.30;;;3.85;;
55417;SDS011;41287;47.554;7.844;2022-11-30T15:24:11;7.82;;;4.35;;
55417;SDS011;41287;47.554;7.844;2022-11-30T15:26:41;7.88;;;3.58;;
55417;SDS011;41287;47.554;7.844;2022-11-30T15:29:19;7.65;;;3.72;;
55417;SDS011;41287;47.554;7.844;2022-11-30T15:31:54;7.80;;;3.90;;
55417;SDS011;41287;47.554;7.844;2022-11-30T15:34:25;7.53;;;3.58;;
55417;SDS011;41287;47.554;7.844;2022-11-30T15:37:08;6.60;;;3.78;;
55417;SDS011;41287;47.554;7.844;2022-11-30T15:39:33;7.40;;;3.60;;
55417;SDS011;41287;47.554;7.844;2022-11-30T15:41:59;7.07;;;3.65;;
55417;SDS011;41287;47.554;7.844;2022-11-30T15:44:39;6.35;;;3.05;;
55417;SDS011;41287;47.554;7.844;2022-11-30T15:49:55;10.95;;;3.70;;
55417;SDS011;41287;47.554;7.844;2022-11-30T15:52:25;6.13;;;3.30;;
55417;SDS011;41287;47.554;7.844;2022-11-30T15:54:52;5.28;;;3.17;;
55417;SDS011;41287;47.554;7.844;2022-11-30T15:57:54;6.97;;;3.70;;
55417;SDS011;41287;47.554;7.844;2022-11-30T16:00:23;8.25;;;3.80;;
55417;SDS011;41287;47.554;7.844;2022-11-30T16:02:48;9.25;;;3.65;;
55417;SDS011;41287;47.554;7.844;2022-11-30T16:07:53;7.25;;;3.63;;
55417;SDS011;41287;47.554;7.844;2022-11-30T16:10:34;7.85;;;3.53;;
55417;SDS011;41287;47.554;7.844;2022-11-30T16:13:02;7.88;;;3.38;;
55417;SDS011;41287;47.554;7.844;2022-11-30T16:15:31;6.18;;;3.28;;
55417;SDS011;41287;47.554;7.844;2022-11-30T16:18:09;6.03;;;3.33;;
55417;SDS011;41287;47.554;7.844;2022-11-30T16:20:43;6.90;;;3.67;;
55417;SDS011;41287;47.554;7.844;2022-11-30T16:23:13;9.23;;;3.25;;
55417;SDS011;41287;47.554;7.844;2022-11-30T16:25:41;7.43;;;3.60;;
55417;SDS011;41287;47.554;7.844;2022-11-30T16:28:08;6.63;;;3.22;;
55417;SDS011;41287;47.554;7.844;2022-11-30T16:30:34;7.63;;;3.75;;
55417;SDS011;41287;47.554;7.844;2022-11-30T16:32:59;7.07;;;3.03;;
55417;SDS011;41287;47.554;7.844;2022-11-30T16:35:28;5.93;;;3.53;;
55417;SDS011;41287;47.554;7.844;2022-11-30T16:38:15;6.97;;;3.33;;
55417;SDS011;41287;47.554;7.844;2022-11-30T16:40:41;6.40;;;3.33;;
55417;SDS011;41287;47.554;7.844;2022-11-30T16:43:08;11.80;;;3.92;;
55417;SDS011;41287;47.554;7.844;2022-11-30T16:45:35;6.80;;;3.30;;
55417;SDS011;41287;47.554;7.844;2022-11-30T16:48:02;5.38;;;2.95;;
55417;SDS011;41287;47.554;7.844;2022-11-30T16:50:28;8.40;;;3.55;;
55417;SDS011;41287;47.554;7.844;2022-11-30T16:52:55;7.18;;;3.47;;
55417;SDS011;41287;47.554;7.844;2022-11-30T16:55:21;7.65;;;3.47;;
55417;SDS011;41287;47.554;7.844;2022-11-30T16:57:47;5.47;;;3.20;;
55417;SDS011;41287;47.554;7.844;2022-11-30T17:00:15;6.43;;;2.97;;
55417;SDS011;41287;47.554;7.844;2022-11-30T17:02:47;6.13;;;2.92;;
55417;SDS011;41287;47.554;7.844;2022-11-30T17:05:35;7.28;;;3.25;;